首页
METAR-TAF:

METAR-TAF

机场 :

Newnan-Coweta County Airport

Newnan, 喬治亞, 美国

纬度: 33-18-44N, 经度: 084-46-13W, 海拔: 296米

当前天气观测

该预报发布于19分钟前的19:35 UTC
静风
温度 19°C
湿度 60%
气压 1014 hPa
能見度: 16.1公里
阴天层高于3100英尺

METAR: KCCO 171935Z AUTO 00000KT 10SM OVC031 19/11 A2994 RMK AO2 T01890111

时间: 14:54 (19:54 UTC)


TAF: 丢失

超过4000个机场的气象观测和天气预报(METAR&TAF报告)。

可查询的气象台以黄色和红色小点在地图上表示。

将鼠标移到小点上方,可查看气象台名称。

然后点击查看天气观测和预报。

如需切换地图:点击带黑十字的绿色按钮放大地图;点击带横线的绿色按钮缩小地图;或者点击绿色箭头查看邻近地区的地图。


METAR-TAF: